sensor_id;sensor_type;location;lat;lon;timestamp;temperature;humidity
53294;DHT22;39181;53.440;5.644;2023-12-07T00:00:18;3.70;99.90
53294;DHT22;39181;53.440;5.644;2023-12-07T00:02:44;3.90;99.90
53294;DHT22;39181;53.440;5.644;2023-12-07T00:05:09;3.90;99.90
53294;DHT22;39181;53.440;5.644;2023-12-07T00:07:35;3.80;99.90
53294;DHT22;39181;53.440;5.644;2023-12-07T00:10:00;3.80;99.90
53294;DHT22;39181;53.440;5.644;2023-12-07T00:12:26;3.90;99.90
53294;DHT22;39181;53.440;5.644;2023-12-07T00:14:51;3.70;99.90
53294;DHT22;39181;53.440;5.644;2023-12-07T00:17:17;3.80;99.90
53294;DHT22;39181;53.440;5.644;2023-12-07T00:19:42;3.80;99.90
53294;DHT22;39181;53.440;5.644;2023-12-07T00:22:08;3.70;99.90
53294;DHT22;39181;53.440;5.644;2023-12-07T00:24:33;3.80;99.90
53294;DHT22;39181;53.440;5.644;2023-12-07T00:26:59;3.80;99.90
53294;DHT22;39181;53.440;5.644;2023-12-07T00:29:24;3.80;99.90
53294;DHT22;39181;53.440;5.644;2023-12-07T00:31:50;3.90;99.90
53294;DHT22;39181;53.440;5.644;2023-12-07T00:34:17;3.70;99.90
53294;DHT22;39181;53.440;5.644;2023-12-07T00:36:42;3.70;99.90
53294;DHT22;39181;53.440;5.644;2023-12-07T00:39:08;3.70;99.90
53294;DHT22;39181;53.440;5.644;2023-12-07T00:41:34;3.80;99.90
53294;DHT22;39181;53.440;5.644;2023-12-07T00:43:59;3.80;99.90
53294;DHT22;39181;53.440;5.644;2023-12-07T00:46:25;3.60;99.90
53294;DHT22;39181;53.440;5.644;2023-12-07T00:48:50;3.80;99.90
53294;DHT22;39181;53.440;5.644;2023-12-07T00:51:16;3.50;99.90
53294;DHT22;39181;53.440;5.644;2023-12-07T00:53:42;3.50;99.90
53294;DHT22;39181;53.440;5.644;2023-12-07T00:56:08;3.70;99.90
53294;DHT22;39181;53.440;5.644;2023-12-07T00:58:33;3.70;99.90
53294;DHT22;39181;53.440;5.644;2023-12-07T01:00:59;3.50;99.90
53294;DHT22;39181;53.440;5.644;2023-12-07T01:03:25;3.60;99.90
53294;DHT22;39181;53.440;5.644;2023-12-07T01:05:51;3.60;99.90
53294;DHT22;39181;53.440;5.644;2023-12-07T01:08:16;3.60;99.90
53294;DHT22;39181;53.440;5.644;2023-12-07T01:10:42;3.70;99.90
53294;DHT22;39181;53.440;5.644;2023-12-07T01:13:07;3.80;99.90
53294;DHT22;39181;53.440;5.644;2023-12-07T01:15:33;3.80;99.90
53294;DHT22;39181;53.440;5.644;2023-12-07T01:17:58;3.70;99.90
53294;DHT22;39181;53.440;5.644;2023-12-07T01:20:24;3.80;99.90
53294;DHT22;39181;53.440;5.644;2023-12-07T01:22:49;3.80;99.90
53294;DHT22;39181;53.440;5.644;2023-12-07T01:25:15;3.70;99.90
53294;DHT22;39181;53.440;5.644;2023-12-07T01:27:45;3.70;99.90
53294;DHT22;39181;53.440;5.644;2023-12-07T01:30:11;3.70;99.90
53294;DHT22;39181;53.440;5.644;2023-12-07T01:32:36;3.40;99.90
53294;DHT22;39181;53.440;5.644;2023-12-07T01:35:02;3.50;99.90
53294;DHT22;39181;53.440;5.644;2023-12-07T01:37:28;3.30;99.90
53294;DHT22;39181;53.440;5.644;2023-12-07T01:39:54;3.10;99.90
53294;DHT22;39181;53.440;5.644;2023-12-07T01:42:20;3.20;99.90
53294;DHT22;39181;53.440;5.644;2023-12-07T01:44:46;3.00;99.90
53294;DHT22;39181;53.440;5.644;2023-12-07T01:47:11;3.00;99.90
53294;DHT22;39181;53.440;5.644;2023-12-07T01:49:37;2.70;99.90
53294;DHT22;39181;53.440;5.644;2023-12-07T01:52:05;2.70;99.90
53294;DHT22;39181;53.440;5.644;2023-12-07T01:54:32;2.60;99.90
53294;DHT22;39181;53.440;5.644;2023-12-07T01:56:58;2.70;99.90
53294;DHT22;39181;53.440;5.644;2023-12-07T01:59:24;2.60;99.90
53294;DHT22;39181;53.440;5.644;2023-12-07T02:01:50;2.40;99.90
53294;DHT22;39181;53.440;5.644;2023-12-07T02:04:16;2.40;99.90
53294;DHT22;39181;53.440;5.644;2023-12-07T02:06:42;2.40;99.90
53294;DHT22;39181;53.440;5.644;2023-12-07T02:09:07;2.30;99.90
53294;DHT22;39181;53.440;5.644;2023-12-07T02:11:34;2.20;99.90
53294;DHT22;39181;53.440;5.644;2023-12-07T02:14:00;2.30;99.90
53294;DHT22;39181;53.440;5.644;2023-12-07T02:16:36;2.20;99.90
53294;DHT22;39181;53.440;5.644;2023-12-07T02:19:38;2.00;99.90
53294;DHT22;39181;53.440;5.644;2023-12-07T02:22:12;2.10;99.90
53294;DHT22;39181;53.440;5.644;2023-12-07T02:24:59;2.10;99.90
53294;DHT22;39181;53.440;5.644;2023-12-07T02:27:36;1.90;99.90
53294;DHT22;39181;53.440;5.644;2023-12-07T02:30:02;1.90;99.90
53294;DHT22;39181;53.440;5.644;2023-12-07T02:32:28;2.20;99.90
53294;DHT22;39181;53.440;5.644;2023-12-07T02:34:54;2.20;99.90
53294;DHT22;39181;53.440;5.644;2023-12-07T02:37:21;2.00;99.90
53294;DHT22;39181;53.440;5.644;2023-12-07T02:39:48;2.30;99.90
53294;DHT22;39181;53.440;5.644;2023-12-07T02:42:15;2.10;99.90
53294;DHT22;39181;53.440;5.644;2023-12-07T02:44:42;2.20;99.90
53294;DHT22;39181;53.440;5.644;2023-12-07T02:47:08;2.20;99.90
53294;DHT22;39181;53.440;5.644;2023-12-07T02:49:34;2.50;99.90
53294;DHT22;39181;53.440;5.644;2023-12-07T02:51:59;2.40;99.90
53294;DHT22;39181;53.440;5.644;2023-12-07T02:54:25;2.40;99.90
53294;DHT22;39181;53.440;5.644;2023-12-07T02:56:50;2.30;99.90
53294;DHT22;39181;53.440;5.644;2023-12-07T02:59:16;2.50;99.90
53294;DHT22;39181;53.440;5.644;2023-12-07T03:01:42;2.50;99.90
53294;DHT22;39181;53.440;5.644;2023-12-07T03:04:07;2.40;99.90
53294;DHT22;39181;53.440;5.644;2023-12-07T03:06:33;2.60;99.90
53294;DHT22;39181;53.440;5.644;2023-12-07T03:08:58;2.50;99.90
53294;DHT22;39181;53.440;5.644;2023-12-07T03:11:24;2.90;99.90
53294;DHT22;39181;53.440;5.644;2023-12-07T03:13:49;2.90;99.90
53294;DHT22;39181;53.440;5.644;2023-12-07T03:16:15;3.00;99.90
53294;DHT22;39181;53.440;5.644;2023-12-07T03:18:40;2.70;99.90
53294;DHT22;39181;53.440;5.644;2023-12-07T03:21:06;2.70;99.90
53294;DHT22;39181;53.440;5.644;2023-12-07T03:23:32;2.70;99.90
53294;DHT22;39181;53.440;5.644;2023-12-07T03:25:58;3.00;99.90
53294;DHT22;39181;53.440;5.644;2023-12-07T03:28:23;2.70;99.90
53294;DHT22;39181;53.440;5.644;2023-12-07T03:30:49;2.70;99.90
53294;DHT22;39181;53.440;5.644;2023-12-07T03:33:14;2.70;99.90
53294;DHT22;39181;53.440;5.644;2023-12-07T03:35:40;3.00;99.90
53294;DHT22;39181;53.440;5.644;2023-12-07T03:38:06;2.80;99.90
53294;DHT22;39181;53.440;5.644;2023-12-07T03:40:32;3.00;99.90
53294;DHT22;39181;53.440;5.644;2023-12-07T03:42:57;2.80;99.90
53294;DHT22;39181;53.440;5.644;2023-12-07T03:45:23;3.00;99.90
53294;DHT22;39181;53.440;5.644;2023-12-07T03:47:49;2.80;99.90
53294;DHT22;39181;53.440;5.644;2023-12-07T03:50:15;3.10;99.90
53294;DHT22;39181;53.440;5.644;2023-12-07T03:52:40;3.10;99.90
53294;DHT22;39181;53.440;5.644;2023-12-07T03:55:06;2.90;99.90
53294;DHT22;39181;53.440;5.644;2023-12-07T03:57:32;3.20;99.90
53294;DHT22;39181;53.440;5.644;2023-12-07T03:59:57;2.90;99.90
53294;DHT22;39181;53.440;5.644;2023-12-07T04:02:23;3.10;99.90
53294;DHT22;39181;53.440;5.644;2023-12-07T04:04:49;3.00;99.90
53294;DHT22;39181;53.440;5.644;2023-12-07T04:07:15;3.20;99.90
53294;DHT22;39181;53.440;5.644;2023-12-07T04:09:40;3.00;99.90
53294;DHT22;39181;53.440;5.644;2023-12-07T04:12:06;3.00;99.90
53294;DHT22;39181;53.440;5.644;2023-12-07T04:14:32;3.30;99.90
53294;DHT22;39181;53.440;5.644;2023-12-07T04:16:57;3.00;99.90
53294;DHT22;39181;53.440;5.644;2023-12-07T04:19:23;3.00;99.90
53294;DHT22;39181;53.440;5.644;2023-12-07T04:21:48;3.30;99.90
53294;DHT22;39181;53.440;5.644;2023-12-07T04:24:14;3.30;99.90
53294;DHT22;39181;53.440;5.644;2023-12-07T04:26:39;3.30;99.90
53294;DHT22;39181;53.440;5.644;2023-12-07T04:29:05;3.00;99.90
53294;DHT22;39181;53.440;5.644;2023-12-07T04:31:30;3.30;99.90
53294;DHT22;39181;53.440;5.644;2023-12-07T04:33:56;3.00;99.90
53294;DHT22;39181;53.440;5.644;2023-12-07T04:36:21;3.00;99.90
53294;DHT22;39181;53.440;5.644;2023-12-07T04:38:47;3.10;99.90
53294;DHT22;39181;53.440;5.644;2023-12-07T04:41:13;3.10;99.90
53294;DHT22;39181;53.440;5.644;2023-12-07T04:43:38;3.40;99.90
53294;DHT22;39181;53.440;5.644;2023-12-07T04:46:04;3.10;99.90
53294;DHT22;39181;53.440;5.644;2023-12-07T04:48:29;3.40;99.90
53294;DHT22;39181;53.440;5.644;2023-12-07T04:50:55;3.10;99.90
53294;DHT22;39181;53.440;5.644;2023-12-07T04:53:21;3.20;99.90
53294;DHT22;39181;53.440;5.644;2023-12-07T04:55:46;3.20;99.90
53294;DHT22;39181;53.440;5.644;2023-12-07T04:58:15;3.30;99.90
53294;DHT22;39181;53.440;5.644;2023-12-07T05:00:41;3.40;99.90
53294;DHT22;39181;53.440;5.644;2023-12-07T05:03:06;3.30;99.90
53294;DHT22;39181;53.440;5.644;2023-12-07T05:05:32;3.40;99.90
53294;DHT22;39181;53.440;5.644;2023-12-07T05:07:57;3.30;99.90
53294;DHT22;39181;53.440;5.644;2023-12-07T05:10:23;3.40;99.90
53294;DHT22;39181;53.440;5.644;2023-12-07T05:12:49;3.30;99.90
53294;DHT22;39181;53.440;5.644;2023-12-07T05:15:15;3.50;99.90
53294;DHT22;39181;53.440;5.644;2023-12-07T05:17:41;3.40;99.90
53294;DHT22;39181;53.440;5.644;2023-12-07T05:20:07;3.20;99.90
53294;DHT22;39181;53.440;5.644;2023-12-07T05:22:32;3.30;99.90
53294;DHT22;39181;53.440;5.644;2023-12-07T05:24:58;3.30;99.90
53294;DHT22;39181;53.440;5.644;2023-12-07T05:27:24;3.20;99.90
53294;DHT22;39181;53.440;5.644;2023-12-07T05:29:49;3.40;99.90
53294;DHT22;39181;53.440;5.644;2023-12-07T05:32:15;3.60;99.90
53294;DHT22;39181;53.440;5.644;2023-12-07T05:34:40;3.60;99.90
53294;DHT22;39181;53.440;5.644;2023-12-07T05:37:06;3.60;99.90
53294;DHT22;39181;53.440;5.644;2023-12-07T05:39:32;3.50;99.90
53294;DHT22;39181;53.440;5.644;2023-12-07T05:41:57;3.50;99.90
53294;DHT22;39181;53.440;5.644;2023-12-07T05:44:23;3.60;99.90
53294;DHT22;39181;53.440;5.644;2023-12-07T05:46:49;3.60;99.90
53294;DHT22;39181;53.440;5.644;2023-12-07T05:49:15;3.50;99.90
53294;DHT22;39181;53.440;5.644;2023-12-07T05:51:41;3.40;99.90
53294;DHT22;39181;53.440;5.644;2023-12-07T05:54:06;3.40;99.90
53294;DHT22;39181;53.440;5.644;2023-12-07T05:56:32;3.50;99.90
53294;DHT22;39181;53.440;5.644;2023-12-07T05:58:57;3.40;99.90
53294;DHT22;39181;53.440;5.644;2023-12-07T06:01:23;3.10;99.90
53294;DHT22;39181;53.440;5.644;2023-12-07T06:03:50;3.30;99.90
53294;DHT22;39181;53.440;5.644;2023-12-07T06:06:15;3.20;99.90
53294;DHT22;39181;53.440;5.644;2023-12-07T06:08:44;3.40;99.90
53294;DHT22;39181;53.440;5.644;2023-12-07T06:11:09;3.40;99.90
53294;DHT22;39181;53.440;5.644;2023-12-07T06:13:35;3.10;99.90
53294;DHT22;39181;53.440;5.644;2023-12-07T06:16:00;2.90;99.90
53294;DHT22;39181;53.440;5.644;2023-12-07T06:18:29;2.90;99.90
53294;DHT22;39181;53.440;5.644;2023-12-07T06:21:24;2.90;99.90
53294;DHT22;39181;53.440;5.644;2023-12-07T06:23:50;2.80;99.90
53294;DHT22;39181;53.440;5.644;2023-12-07T06:26:16;2.80;99.90
53294;DHT22;39181;53.440;5.644;2023-12-07T06:28:45;4.00;99.90
53294;DHT22;39181;53.440;5.644;2023-12-07T06:31:11;2.70;99.90
53294;DHT22;39181;53.440;5.644;2023-12-07T06:33:37;2.90;99.90
53294;DHT22;39181;53.440;5.644;2023-12-07T06:36:03;2.80;99.90
53294;DHT22;39181;53.440;5.644;2023-12-07T06:38:29;2.50;99.90
53294;DHT22;39181;53.440;5.644;2023-12-07T06:40:55;2.80;99.90
53294;DHT22;39181;53.440;5.644;2023-12-07T06:43:21;2.50;99.90
53294;DHT22;39181;53.440;5.644;2023-12-07T06:45:51;2.40;99.90
53294;DHT22;39181;53.440;5.644;2023-12-07T06:48:17;2.60;99.90
53294;DHT22;39181;53.440;5.644;2023-12-07T06:50:42;2.40;99.90
53294;DHT22;39181;53.440;5.644;2023-12-07T06:53:08;2.30;99.90
53294;DHT22;39181;53.440;5.644;2023-12-07T06:55:33;2.60;99.90
53294;DHT22;39181;53.440;5.644;2023-12-07T06:57:59;2.60;99.90
53294;DHT22;39181;53.440;5.644;2023-12-07T07:00:25;2.30;99.90
53294;DHT22;39181;53.440;5.644;2023-12-07T07:02:50;2.50;99.90
53294;DHT22;39181;53.440;5.644;2023-12-07T07:05:16;2.30;99.90
53294;DHT22;39181;53.440;5.644;2023-12-07T07:07:41;2.50;99.90
53294;DHT22;39181;53.440;5.644;2023-12-07T07:10:07;2.60;99.90
53294;DHT22;39181;53.440;5.644;2023-12-07T07:12:35;2.20;99.90
53294;DHT22;39181;53.440;5.644;2023-12-07T07:15:01;2.50;99.90
53294;DHT22;39181;53.440;5.644;2023-12-07T07:17:26;2.40;99.90
53294;DHT22;39181;53.440;5.644;2023-12-07T07:19:54;2.10;99.90
53294;DHT22;39181;53.440;5.644;2023-12-07T07:22:20;2.00;99.90
53294;DHT22;39181;53.440;5.644;2023-12-07T07:24:47;1.90;99.90
53294;DHT22;39181;53.440;5.644;2023-12-07T07:27:12;2.00;99.90
53294;DHT22;39181;53.440;5.644;2023-12-07T07:29:38;1.90;99.90
53294;DHT22;39181;53.440;5.644;2023-12-07T07:32:05;1.90;99.90
53294;DHT22;39181;53.440;5.644;2023-12-07T07:34:31;2.00;99.90
53294;DHT22;39181;53.440;5.644;2023-12-07T07:36:56;1.70;99.90
53294;DHT22;39181;53.440;5.644;2023-12-07T07:39:22;1.70;99.90
53294;DHT22;39181;53.440;5.644;2023-12-07T07:41:47;1.90;99.90
53294;DHT22;39181;53.440;5.644;2023-12-07T07:44:13;1.90;99.90
53294;DHT22;39181;53.440;5.644;2023-12-07T07:46:40;1.60;99.90
53294;DHT22;39181;53.440;5.644;2023-12-07T07:49:06;1.70;99.90
53294;DHT22;39181;53.440;5.644;2023-12-07T07:51:32;1.60;99.90
53294;DHT22;39181;53.440;5.644;2023-12-07T07:53:59;1.70;99.90
53294;DHT22;39181;53.440;5.644;2023-12-07T07:56:24;1.50;99.90
53294;DHT22;39181;53.440;5.644;2023-12-07T07:58:54;1.40;99.90
53294;DHT22;39181;53.440;5.644;2023-12-07T08:01:21;1.80;99.90
53294;DHT22;39181;53.440;5.644;2023-12-07T08:03:47;1.40;99.90
53294;DHT22;39181;53.440;5.644;2023-12-07T08:06:13;1.80;99.90
53294;DHT22;39181;53.440;5.644;2023-12-07T08:08:39;1.70;99.90
53294;DHT22;39181;53.440;5.644;2023-12-07T08:11:04;1.30;99.90
53294;DHT22;39181;53.440;5.644;2023-12-07T08:13:34;1.70;99.90
53294;DHT22;39181;53.440;5.644;2023-12-07T08:16:00;1.70;99.90
53294;DHT22;39181;53.440;5.644;2023-12-07T08:18:26;1.30;99.90
53294;DHT22;39181;53.440;5.644;2023-12-07T08:20:52;1.30;99.90
53294;DHT22;39181;53.440;5.644;2023-12-07T08:23:26;1.50;99.90
53294;DHT22;39181;53.440;5.644;2023-12-07T08:25:52;1.20;99.90
53294;DHT22;39181;53.440;5.644;2023-12-07T08:28:17;1.20;99.90
53294;DHT22;39181;53.440;5.644;2023-12-07T08:30:44;1.60;99.90
53294;DHT22;39181;53.440;5.644;2023-12-07T08:33:09;1.30;99.90
53294;DHT22;39181;53.440;5.644;2023-12-07T08:35:35;1.20;99.90
53294;DHT22;39181;53.440;5.644;2023-12-07T08:38:00;1.20;99.90
53294;DHT22;39181;53.440;5.644;2023-12-07T08:40:26;1.20;99.90
53294;DHT22;39181;53.440;5.644;2023-12-07T08:42:54;1.30;99.90
53294;DHT22;39181;53.440;5.644;2023-12-07T08:45:22;1.50;99.90
53294;DHT22;39181;53.440;5.644;2023-12-07T08:47:49;1.20;99.90
53294;DHT22;39181;53.440;5.644;2023-12-07T08:50:15;1.10;99.90
53294;DHT22;39181;53.440;5.644;2023-12-07T08:52:40;1.30;99.90
53294;DHT22;39181;53.440;5.644;2023-12-07T08:55:06;1.40;99.90
53294;DHT22;39181;53.440;5.644;2023-12-07T08:57:32;1.20;99.90
53294;DHT22;39181;53.440;5.644;2023-12-07T08:59:57;1.60;99.90
53294;DHT22;39181;53.440;5.644;2023-12-07T09:02:25;1.30;99.90
53294;DHT22;39181;53.440;5.644;2023-12-07T09:04:50;1.50;99.90
53294;DHT22;39181;53.440;5.644;2023-12-07T09:07:17;1.20;99.90
53294;DHT22;39181;53.440;5.644;2023-12-07T09:09:43;1.20;99.90
53294;DHT22;39181;53.440;5.644;2023-12-07T09:12:13;1.30;99.90
53294;DHT22;39181;53.440;5.644;2023-12-07T09:14:40;1.30;99.90
53294;DHT22;39181;53.440;5.644;2023-12-07T09:17:05;1.50;99.90
53294;DHT22;39181;53.440;5.644;2023-12-07T09:19:31;1.30;99.90
53294;DHT22;39181;53.440;5.644;2023-12-07T09:21:57;1.70;99.90
53294;DHT22;39181;53.440;5.644;2023-12-07T09:24:24;1.40;99.90
53294;DHT22;39181;53.440;5.644;2023-12-07T09:26:49;1.80;99.90
53294;DHT22;39181;53.440;5.644;2023-12-07T09:29:15;1.80;99.90
53294;DHT22;39181;53.440;5.644;2023-12-07T09:31:40;1.50;99.90
53294;DHT22;39181;53.440;5.644;2023-12-07T09:34:06;1.50;99.90
53294;DHT22;39181;53.440;5.644;2023-12-07T09:36:33;1.60;99.90
53294;DHT22;39181;53.440;5.644;2023-12-07T09:38:59;1.60;99.90
53294;DHT22;39181;53.440;5.644;2023-12-07T09:41:27;1.60;99.90
53294;DHT22;39181;53.440;5.644;2023-12-07T09:43:54;1.60;99.90
53294;DHT22;39181;53.440;5.644;2023-12-07T09:46:20;1.90;99.90
53294;DHT22;39181;53.440;5.644;2023-12-07T09:48:48;1.70;99.90
53294;DHT22;39181;53.440;5.644;2023-12-07T09:51:15;1.90;99.90
53294;DHT22;39181;53.440;5.644;2023-12-07T09:53:42;2.10;99.90
53294;DHT22;39181;53.440;5.644;2023-12-07T09:56:09;2.00;99.90
53294;DHT22;39181;53.440;5.644;2023-12-07T09:58:35;1.70;99.90
53294;DHT22;39181;53.440;5.644;2023-12-07T10:01:00;2.10;99.90
53294;DHT22;39181;53.440;5.644;2023-12-07T10:03:26;2.20;99.90
53294;DHT22;39181;53.440;5.644;2023-12-07T10:05:57;2.20;99.90
53294;DHT22;39181;53.440;5.644;2023-12-07T10:08:30;2.30;99.90
53294;DHT22;39181;53.440;5.644;2023-12-07T10:11:10;2.00;99.90
53294;DHT22;39181;53.440;5.644;2023-12-07T10:13:37;2.30;99.90
53294;DHT22;39181;53.440;5.644;2023-12-07T10:16:11;2.30;99.90
53294;DHT22;39181;53.440;5.644;2023-12-07T10:18:37;2.30;99.90
53294;DHT22;39181;53.440;5.644;2023-12-07T10:21:05;2.30;99.90
53294;DHT22;39181;53.440;5.644;2023-12-07T10:23:30;2.40;99.90
53294;DHT22;39181;53.440;5.644;2023-12-07T10:25:58;2.40;99.90
53294;DHT22;39181;53.440;5.644;2023-12-07T10:28:24;2.30;99.90
53294;DHT22;39181;53.440;5.644;2023-12-07T10:30:50;2.40;99.90
53294;DHT22;39181;53.440;5.644;2023-12-07T10:33:16;2.40;99.90
53294;DHT22;39181;53.440;5.644;2023-12-07T10:35:46;2.30;99.90
53294;DHT22;39181;53.440;5.644;2023-12-07T10:38:12;2.40;99.90
53294;DHT22;39181;53.440;5.644;2023-12-07T10:40:38;2.00;99.90
53294;DHT22;39181;53.440;5.644;2023-12-07T10:43:08;2.10;99.90
53294;DHT22;39181;53.440;5.644;2023-12-07T10:45:35;2.30;99.90
53294;DHT22;39181;53.440;5.644;2023-12-07T10:48:07;2.30;99.90
53294;DHT22;39181;53.440;5.644;2023-12-07T10:50:38;2.40;99.90
53294;DHT22;39181;53.440;5.644;2023-12-07T10:53:15;2.20;99.90
53294;DHT22;39181;53.440;5.644;2023-12-07T10:56:00;2.10;99.90
53294;DHT22;39181;53.440;5.644;2023-12-07T10:58:26;2.20;99.90
53294;DHT22;39181;53.440;5.644;2023-12-07T11:00:53;2.70;99.90
53294;DHT22;39181;53.440;5.644;2023-12-07T11:03:20;2.30;99.90
53294;DHT22;39181;53.440;5.644;2023-12-07T11:05:49;2.70;99.90
53294;DHT22;39181;53.440;5.644;2023-12-07T11:08:24;2.70;99.90
53294;DHT22;39181;53.440;5.644;2023-12-07T11:11:04;2.50;99.90
53294;DHT22;39181;53.440;5.644;2023-12-07T11:13:33;2.30;99.90
53294;DHT22;39181;53.440;5.644;2023-12-07T11:16:00;2.30;99.90
53294;DHT22;39181;53.440;5.644;2023-12-07T11:18:27;2.60;99.90
53294;DHT22;39181;53.440;5.644;2023-12-07T11:20:54;2.50;99.90
53294;DHT22;39181;53.440;5.644;2023-12-07T11:23:20;2.40;99.90
53294;DHT22;39181;53.440;5.644;2023-12-07T11:25:47;2.60;99.90
53294;DHT22;39181;53.440;5.644;2023-12-07T11:28:14;2.80;99.90
53294;DHT22;39181;53.440;5.644;2023-12-07T11:30:42;2.60;99.90
53294;DHT22;39181;53.440;5.644;2023-12-07T11:33:09;2.70;99.90
53294;DHT22;39181;53.440;5.644;2023-12-07T11:38:27;2.80;99.90
53294;DHT22;39181;53.440;5.644;2023-12-07T11:40:54;2.80;99.90
53294;DHT22;39181;53.440;5.644;2023-12-07T11:45:59;3.30;99.90
53294;DHT22;39181;53.440;5.644;2023-12-07T11:48:25;3.10;99.90
53294;DHT22;39181;53.440;5.644;2023-12-07T11:53:28;3.40;99.90
53294;DHT22;39181;53.440;5.644;2023-12-07T11:55:56;3.50;99.90
53294;DHT22;39181;53.440;5.644;2023-12-07T11:58:21;3.20;99.90
53294;DHT22;39181;53.440;5.644;2023-12-07T12:00:47;3.40;99.90
53294;DHT22;39181;53.440;5.644;2023-12-07T12:03:13;3.40;99.90
53294;DHT22;39181;53.440;5.644;2023-12-07T12:05:40;3.70;99.90
53294;DHT22;39181;53.440;5.644;2023-12-07T12:08:06;3.60;99.90
53294;DHT22;39181;53.440;5.644;2023-12-07T12:10:32;3.80;99.90
53294;DHT22;39181;53.440;5.644;2023-12-07T12:13:04;3.60;99.90
53294;DHT22;39181;53.440;5.644;2023-12-07T12:15:30;3.50;99.90
53294;DHT22;39181;53.440;5.644;2023-12-07T12:17:56;3.90;99.90
53294;DHT22;39181;53.440;5.644;2023-12-07T12:20:24;4.00;99.90
53294;DHT22;39181;53.440;5.644;2023-12-07T12:22:50;3.90;99.90
53294;DHT22;39181;53.440;5.644;2023-12-07T12:25:25;3.80;99.90
53294;DHT22;39181;53.440;5.644;2023-12-07T12:28:02;4.20;99.90
53294;DHT22;39181;53.440;5.644;2023-12-07T12:30:29;3.80;99.90
53294;DHT22;39181;53.440;5.644;2023-12-07T12:32:55;4.20;99.90
53294;DHT22;39181;53.440;5.644;2023-12-07T12:35:21;4.10;99.90
53294;DHT22;39181;53.440;5.644;2023-12-07T12:37:48;3.90;99.90
53294;DHT22;39181;53.440;5.644;2023-12-07T12:40:19;4.30;99.90
53294;DHT22;39181;53.440;5.644;2023-12-07T12:42:46;4.20;99.90
53294;DHT22;39181;53.440;5.644;2023-12-07T12:45:13;4.10;99.90
53294;DHT22;39181;53.440;5.644;2023-12-07T12:47:42;4.20;99.90
53294;DHT22;39181;53.440;5.644;2023-12-07T12:50:12;4.10;99.90
53294;DHT22;39181;53.440;5.644;2023-12-07T12:52:40;3.90;99.90
53294;DHT22;39181;53.440;5.644;2023-12-07T12:55:10;4.10;99.90
53294;DHT22;39181;53.440;5.644;2023-12-07T12:57:36;3.90;99.90
53294;DHT22;39181;53.440;5.644;2023-12-07T13:00:02;3.90;99.90
53294;DHT22;39181;53.440;5.644;2023-12-07T13:02:28;4.20;99.90
53294;DHT22;39181;53.440;5.644;2023-12-07T13:04:54;3.80;99.90
53294;DHT22;39181;53.440;5.644;2023-12-07T13:07:21;4.20;99.90
53294;DHT22;39181;53.440;5.644;2023-12-07T13:09:47;3.90;99.90
53294;DHT22;39181;53.440;5.644;2023-12-07T13:12:12;4.10;99.90
53294;DHT22;39181;53.440;5.644;2023-12-07T13:14:38;4.10;99.90
53294;DHT22;39181;53.440;5.644;2023-12-07T13:17:05;3.80;99.90
53294;DHT22;39181;53.440;5.644;2023-12-07T13:19:33;3.90;99.90
53294;DHT22;39181;53.440;5.644;2023-12-07T13:21:58;3.90;99.90
53294;DHT22;39181;53.440;5.644;2023-12-07T13:24:24;3.70;99.90
53294;DHT22;39181;53.440;5.644;2023-12-07T13:26:49;3.80;99.90
53294;DHT22;39181;53.440;5.644;2023-12-07T13:29:15;3.70;99.90
53294;DHT22;39181;53.440;5.644;2023-12-07T13:31:40;3.50;99.90
53294;DHT22;39181;53.440;5.644;2023-12-07T13:34:06;3.80;99.90
53294;DHT22;39181;53.440;5.644;2023-12-07T13:36:32;3.40;99.90
53294;DHT22;39181;53.440;5.644;2023-12-07T13:38:59;3.50;99.90
53294;DHT22;39181;53.440;5.644;2023-12-07T13:41:27;3.20;99.90
53294;DHT22;39181;53.440;5.644;2023-12-07T13:43:53;3.40;99.90
53294;DHT22;39181;53.440;5.644;2023-12-07T13:46:19;3.30;99.90
53294;DHT22;39181;53.440;5.644;2023-12-07T13:48:45;2.90;99.90
53294;DHT22;39181;53.440;5.644;2023-12-07T13:51:10;2.80;99.90
53294;DHT22;39181;53.440;5.644;2023-12-07T13:53:36;3.10;99.90
53294;DHT22;39181;53.440;5.644;2023-12-07T13:56:03;2.70;99.90
53294;DHT22;39181;53.440;5.644;2023-12-07T13:58:30;2.90;99.90
53294;DHT22;39181;53.440;5.644;2023-12-07T14:00:55;2.80;99.90
53294;DHT22;39181;53.440;5.644;2023-12-07T14:03:21;2.40;99.90
53294;DHT22;39181;53.440;5.644;2023-12-07T14:05:46;2.50;99.90
53294;DHT22;39181;53.440;5.644;2023-12-07T14:08:13;2.40;99.90
53294;DHT22;39181;53.440;5.644;2023-12-07T14:10:38;2.60;99.90
53294;DHT22;39181;53.440;5.644;2023-12-07T14:13:04;2.50;99.90
53294;DHT22;39181;53.440;5.644;2023-12-07T14:15:29;2.00;99.90
53294;DHT22;39181;53.440;5.644;2023-12-07T14:17:59;2.30;99.90
53294;DHT22;39181;53.440;5.644;2023-12-07T14:20:25;1.80;99.90
53294;DHT22;39181;53.440;5.644;2023-12-07T14:22:53;2.10;99.90
53294;DHT22;39181;53.440;5.644;2023-12-07T14:25:19;2.00;99.90
53294;DHT22;39181;53.440;5.644;2023-12-07T14:27:44;1.90;99.90
53294;DHT22;39181;53.440;5.644;2023-12-07T14:30:11;1.50;99.90
53294;DHT22;39181;53.440;5.644;2023-12-07T14:32:36;1.50;99.90
53294;DHT22;39181;53.440;5.644;2023-12-07T14:35:02;1.80;99.90
53294;DHT22;39181;53.440;5.644;2023-12-07T14:37:27;1.40;99.90
53294;DHT22;39181;53.440;5.644;2023-12-07T14:39:54;1.70;99.90
53294;DHT22;39181;53.440;5.644;2023-12-07T14:42:19;1.50;99.90
53294;DHT22;39181;53.440;5.644;2023-12-07T14:44:45;1.50;99.90
53294;DHT22;39181;53.440;5.644;2023-12-07T14:47:10;1.60;99.90
53294;DHT22;39181;53.440;5.644;2023-12-07T14:49:36;1.10;99.90
53294;DHT22;39181;53.440;5.644;2023-12-07T14:52:02;1.20;99.90
53294;DHT22;39181;53.440;5.644;2023-12-07T14:54:28;1.10;99.90
53294;DHT22;39181;53.440;5.644;2023-12-07T14:56:56;1.40;99.90
53294;DHT22;39181;53.440;5.644;2023-12-07T14:59:22;1.40;99.90
53294;DHT22;39181;53.440;5.644;2023-12-07T15:01:47;1.30;99.90
53294;DHT22;39181;53.440;5.644;2023-12-07T15:04:15;1.20;99.90
53294;DHT22;39181;53.440;5.644;2023-12-07T15:06:41;1.10;99.90
53294;DHT22;39181;53.440;5.644;2023-12-07T15:09:06;0.80;99.90
53294;DHT22;39181;53.440;5.644;2023-12-07T15:11:33;1.10;99.90
53294;DHT22;39181;53.440;5.644;2023-12-07T15:13:59;1.10;99.90
53294;DHT22;39181;53.440;5.644;2023-12-07T15:16:25;1.10;99.90
53294;DHT22;39181;53.440;5.644;2023-12-07T15:18:51;0.60;99.90
53294;DHT22;39181;53.440;5.644;2023-12-07T15:21:17;0.90;99.90
53294;DHT22;39181;53.440;5.644;2023-12-07T15:23:44;1.00;99.90
53294;DHT22;39181;53.440;5.644;2023-12-07T15:26:10;0.50;99.90
53294;DHT22;39181;53.440;5.644;2023-12-07T15:28:37;0.90;99.90
53294;DHT22;39181;53.440;5.644;2023-12-07T15:31:06;0.80;99.90
53294;DHT22;39181;53.440;5.644;2023-12-07T15:33:32;0.40;99.90
53294;DHT22;39181;53.440;5.644;2023-12-07T15:35:59;0.60;99.90
53294;DHT22;39181;53.440;5.644;2023-12-07T15:38:25;0.70;99.90
53294;DHT22;39181;53.440;5.644;2023-12-07T15:40:51;0.40;99.90
53294;DHT22;39181;53.440;5.644;2023-12-07T15:43:22;0.60;99.90
53294;DHT22;39181;53.440;5.644;2023-12-07T15:45:48;0.90;99.90
53294;DHT22;39181;53.440;5.644;2023-12-07T15:48:14;0.50;99.90